Rechercher aéroport 
image banner adimage banner adimage banner ad
image banner ad

54CA - Riverside Community Hospital

Situé à Riverside, United States

ICAO - 54CA, IATA -

Données fournies par Airmate  

Information générale

Coordonnées: N33°58'39" W117°22'54"
Élévation : 853 feet MSL.
Variation magnétique : 12° East
Voir autres Aéroports à California

Données opérationnelles

Special qualification required
Heure actuelle UTC:
Heure actuelle locale:
Météo à : KRAL - Riverside Muni ( 6 km )
METAR: KRAL 292353Z 25011G19KT 10SM CLR 34/12 A2983 RMK AO2 SLP084 T03440117 10372 20311 56012
Voir NOTAMs / SUP AIP / TFR affectant cet aéroport [VIEW]
Fréquences de communication: [VIEW]

Pistes:

Coordonnées de l'aéroport

Adresse: Riverside United States

Vue satellite de 54CA